sensor_id;sensor_type;location;lat;lon;timestamp;P1;durP1;ratioP1;P2;durP2;ratioP2
40244;SDS011;25963;42.694;23.600;2023-06-22T00:01:47;12.75;;;11.18;;
40244;SDS011;25963;42.694;23.600;2023-06-22T00:04:13;12.35;;;10.50;;
40244;SDS011;25963;42.694;23.600;2023-06-22T00:06:38;13.35;;;11.40;;
40244;SDS011;25963;42.694;23.600;2023-06-22T00:09:03;13.70;;;10.32;;
40244;SDS011;25963;42.694;23.600;2023-06-22T00:11:29;13.50;;;12.13;;
40244;SDS011;25963;42.694;23.600;2023-06-22T00:13:56;12.55;;;11.35;;
40244;SDS011;25963;42.694;23.600;2023-06-22T00:16:21;15.75;;;12.27;;
40244;SDS011;25963;42.694;23.600;2023-06-22T00:18:47;12.63;;;11.02;;
40244;SDS011;25963;42.694;23.600;2023-06-22T00:21:13;13.90;;;11.55;;
40244;SDS011;25963;42.694;23.600;2023-06-22T00:23:39;14.48;;;12.38;;
40244;SDS011;25963;42.694;23.600;2023-06-22T00:26:04;17.58;;;11.25;;
40244;SDS011;25963;42.694;23.600;2023-06-22T00:28:30;13.15;;;11.20;;
40244;SDS011;25963;42.694;23.600;2023-06-22T00:30:55;17.02;;;12.38;;
40244;SDS011;25963;42.694;23.600;2023-06-22T00:33:21;14.55;;;12.93;;
40244;SDS011;25963;42.694;23.600;2023-06-22T00:35:46;12.25;;;10.80;;
40244;SDS011;25963;42.694;23.600;2023-06-22T00:38:12;14.88;;;11.63;;
40244;SDS011;25963;42.694;23.600;2023-06-22T00:40:37;12.40;;;11.10;;
40244;SDS011;25963;42.694;23.600;2023-06-22T00:43:03;12.20;;;10.90;;
40244;SDS011;25963;42.694;23.600;2023-06-22T00:45:29;13.00;;;11.05;;
40244;SDS011;25963;42.694;23.600;2023-06-22T00:47:56;14.85;;;11.60;;
40244;SDS011;25963;42.694;23.600;2023-06-22T00:50:23;13.70;;;11.57;;
40244;SDS011;25963;42.694;23.600;2023-06-22T00:52:51;15.40;;;11.82;;
40244;SDS011;25963;42.694;23.600;2023-06-22T00:55:21;14.73;;;12.55;;
40244;SDS011;25963;42.694;23.600;2023-06-22T00:57:48;16.05;;;13.38;;
40244;SDS011;25963;42.694;23.600;2023-06-22T01:00:17;13.85;;;12.50;;
40244;SDS011;25963;42.694;23.600;2023-06-22T01:02:44;15.23;;;13.45;;
40244;SDS011;25963;42.694;23.600;2023-06-22T01:05:17;16.58;;;13.60;;
40244;SDS011;25963;42.694;23.600;2023-06-22T01:10:28;14.50;;;12.98;;
40244;SDS011;25963;42.694;23.600;2023-06-22T01:16:02;15.50;;;13.90;;
40244;SDS011;25963;42.694;23.600;2023-06-22T01:18:32;15.73;;;12.95;;
40244;SDS011;25963;42.694;23.600;2023-06-22T01:21:02;15.23;;;12.80;;
40244;SDS011;25963;42.694;23.600;2023-06-22T01:28:48;14.00;;;12.63;;
40244;SDS011;25963;42.694;23.600;2023-06-22T01:31:18;14.63;;;12.38;;
40244;SDS011;25963;42.694;23.600;2023-06-22T01:33:49;19.23;;;13.25;;
40244;SDS011;25963;42.694;23.600;2023-06-22T01:36:18;14.93;;;13.35;;
40244;SDS011;25963;42.694;23.600;2023-06-22T01:38:45;16.30;;;14.25;;
40244;SDS011;25963;42.694;23.600;2023-06-22T01:41:12;13.68;;;12.10;;
40244;SDS011;25963;42.694;23.600;2023-06-22T01:43:38;16.65;;;13.38;;
40244;SDS011;25963;42.694;23.600;2023-06-22T01:46:05;15.80;;;13.82;;
40244;SDS011;25963;42.694;23.600;2023-06-22T01:48:31;13.20;;;11.82;;
40244;SDS011;25963;42.694;23.600;2023-06-22T01:50:57;14.10;;;12.55;;
40244;SDS011;25963;42.694;23.600;2023-06-22T01:53:23;15.93;;;12.32;;
40244;SDS011;25963;42.694;23.600;2023-06-22T01:55:49;15.57;;;12.70;;
40244;SDS011;25963;42.694;23.600;2023-06-22T01:58:14;15.75;;;12.60;;
40244;SDS011;25963;42.694;23.600;2023-06-22T02:00:41;15.35;;;12.57;;
40244;SDS011;25963;42.694;23.600;2023-06-22T02:03:14;18.52;;;13.80;;
40244;SDS011;25963;42.694;23.600;2023-06-22T02:05:49;14.38;;;12.30;;
40244;SDS011;25963;42.694;23.600;2023-06-22T02:08:20;14.70;;;13.23;;
40244;SDS011;25963;42.694;23.600;2023-06-22T02:10:49;14.23;;;12.65;;
40244;SDS011;25963;42.694;23.600;2023-06-22T02:13:17;13.93;;;12.45;;
40244;SDS011;25963;42.694;23.600;2023-06-22T02:15:43;15.30;;;13.77;;
40244;SDS011;25963;42.694;23.600;2023-06-22T02:18:09;14.88;;;12.60;;
40244;SDS011;25963;42.694;23.600;2023-06-22T02:20:38;12.80;;;11.52;;
40244;SDS011;25963;42.694;23.600;2023-06-22T02:23:04;13.82;;;12.35;;
40244;SDS011;25963;42.694;23.600;2023-06-22T02:25:31;14.80;;;12.45;;
40244;SDS011;25963;42.694;23.600;2023-06-22T02:27:56;15.20;;;12.52;;
40244;SDS011;25963;42.694;23.600;2023-06-22T02:30:22;16.08;;;12.52;;
40244;SDS011;25963;42.694;23.600;2023-06-22T02:32:48;15.63;;;12.55;;
40244;SDS011;25963;42.694;23.600;2023-06-22T02:35:13;13.68;;;12.32;;
40244;SDS011;25963;42.694;23.600;2023-06-22T02:37:38;13.82;;;12.20;;
40244;SDS011;25963;42.694;23.600;2023-06-22T02:40:06;15.75;;;11.55;;
40244;SDS011;25963;42.694;23.600;2023-06-22T02:42:35;14.95;;;11.93;;
40244;SDS011;25963;42.694;23.600;2023-06-22T02:45:01;14.70;;;12.95;;
40244;SDS011;25963;42.694;23.600;2023-06-22T02:47:27;15.30;;;11.88;;
40244;SDS011;25963;42.694;23.600;2023-06-22T02:49:52;17.92;;;13.50;;
40244;SDS011;25963;42.694;23.600;2023-06-22T02:52:18;13.20;;;11.90;;
40244;SDS011;25963;42.694;23.600;2023-06-22T02:54:43;17.08;;;12.10;;
40244;SDS011;25963;42.694;23.600;2023-06-22T02:57:11;15.48;;;13.63;;
40244;SDS011;25963;42.694;23.600;2023-06-22T02:59:39;15.18;;;13.57;;
40244;SDS011;25963;42.694;23.600;2023-06-22T03:02:08;15.45;;;13.32;;
40244;SDS011;25963;42.694;23.600;2023-06-22T03:04:34;17.95;;;13.55;;
40244;SDS011;25963;42.694;23.600;2023-06-22T03:07:00;17.25;;;12.70;;
40244;SDS011;25963;42.694;23.600;2023-06-22T03:09:26;17.67;;;13.40;;
40244;SDS011;25963;42.694;23.600;2023-06-22T03:11:53;16.58;;;13.23;;
40244;SDS011;25963;42.694;23.600;2023-06-22T03:14:19;14.77;;;13.07;;
40244;SDS011;25963;42.694;23.600;2023-06-22T03:16:44;16.33;;;14.23;;
40244;SDS011;25963;42.694;23.600;2023-06-22T03:19:10;16.55;;;14.23;;
40244;SDS011;25963;42.694;23.600;2023-06-22T03:21:36;20.00;;;14.43;;
40244;SDS011;25963;42.694;23.600;2023-06-22T03:24:03;18.75;;;14.07;;
40244;SDS011;25963;42.694;23.600;2023-06-22T03:26:29;17.77;;;13.82;;
40244;SDS011;25963;42.694;23.600;2023-06-22T03:28:55;20.55;;;14.18;;
40244;SDS011;25963;42.694;23.600;2023-06-22T03:31:20;37.75;;;16.17;;
40244;SDS011;25963;42.694;23.600;2023-06-22T03:33:47;21.98;;;13.52;;
40244;SDS011;25963;42.694;23.600;2023-06-22T03:36:14;22.23;;;13.82;;
40244;SDS011;25963;42.694;23.600;2023-06-22T03:38:43;15.88;;;12.93;;
40244;SDS011;25963;42.694;23.600;2023-06-22T03:43:55;15.00;;;13.20;;
40244;SDS011;25963;42.694;23.600;2023-06-22T03:46:20;15.70;;;12.30;;
40244;SDS011;25963;42.694;23.600;2023-06-22T03:48:46;14.10;;;12.73;;
40244;SDS011;25963;42.694;23.600;2023-06-22T03:51:11;15.07;;;12.38;;
40244;SDS011;25963;42.694;23.600;2023-06-22T03:53:37;20.30;;;14.35;;
40244;SDS011;25963;42.694;23.600;2023-06-22T03:56:02;18.90;;;14.32;;
40244;SDS011;25963;42.694;23.600;2023-06-22T03:58:28;15.20;;;13.52;;
40244;SDS011;25963;42.694;23.600;2023-06-22T04:00:57;14.90;;;13.13;;
40244;SDS011;25963;42.694;23.600;2023-06-22T04:03:23;16.77;;;13.38;;
40244;SDS011;25963;42.694;23.600;2023-06-22T04:05:48;19.38;;;12.18;;
40244;SDS011;25963;42.694;23.600;2023-06-22T04:08:14;15.95;;;11.75;;
40244;SDS011;25963;42.694;23.600;2023-06-22T04:10:40;13.82;;;12.43;;
40244;SDS011;25963;42.694;23.600;2023-06-22T04:13:06;14.32;;;12.85;;
40244;SDS011;25963;42.694;23.600;2023-06-22T04:15:32;12.95;;;11.68;;
40244;SDS011;25963;42.694;23.600;2023-06-22T04:17:57;14.23;;;12.82;;
40244;SDS011;25963;42.694;23.600;2023-06-22T04:20:23;14.88;;;13.40;;
40244;SDS011;25963;42.694;23.600;2023-06-22T04:22:51;18.30;;;14.30;;
40244;SDS011;25963;42.694;23.600;2023-06-22T04:25:17;14.10;;;12.63;;
40244;SDS011;25963;42.694;23.600;2023-06-22T04:27:43;16.73;;;13.52;;
40244;SDS011;25963;42.694;23.600;2023-06-22T04:30:08;15.15;;;13.50;;
40244;SDS011;25963;42.694;23.600;2023-06-22T04:32:35;15.80;;;13.23;;
40244;SDS011;25963;42.694;23.600;2023-06-22T04:35:04;15.55;;;13.95;;
40244;SDS011;25963;42.694;23.600;2023-06-22T04:37:31;17.55;;;13.88;;
40244;SDS011;25963;42.694;23.600;2023-06-22T04:39:57;15.25;;;13.23;;
40244;SDS011;25963;42.694;23.600;2023-06-22T04:42:22;15.02;;;13.05;;
40244;SDS011;25963;42.694;23.600;2023-06-22T04:44:47;19.13;;;13.27;;
40244;SDS011;25963;42.694;23.600;2023-06-22T04:47:13;15.02;;;13.45;;
40244;SDS011;25963;42.694;23.600;2023-06-22T04:49:38;20.30;;;17.20;;
40244;SDS011;25963;42.694;23.600;2023-06-22T04:52:10;19.20;;;14.95;;
40244;SDS011;25963;42.694;23.600;2023-06-22T04:54:37;18.35;;;14.60;;
40244;SDS011;25963;42.694;23.600;2023-06-22T04:57:04;16.08;;;14.48;;
40244;SDS011;25963;42.694;23.600;2023-06-22T04:59:35;18.73;;;13.88;;
40244;SDS011;25963;42.694;23.600;2023-06-22T05:02:01;16.67;;;14.57;;
40244;SDS011;25963;42.694;23.600;2023-06-22T05:04:28;16.63;;;14.93;;
40244;SDS011;25963;42.694;23.600;2023-06-22T05:06:57;15.43;;;13.77;;
40244;SDS011;25963;42.694;23.600;2023-06-22T05:09:26;15.63;;;14.05;;
40244;SDS011;25963;42.694;23.600;2023-06-22T05:11:52;15.20;;;13.77;;
40244;SDS011;25963;42.694;23.600;2023-06-22T05:14:18;14.60;;;13.05;;
40244;SDS011;25963;42.694;23.600;2023-06-22T05:16:44;15.35;;;13.77;;
40244;SDS011;25963;42.694;23.600;2023-06-22T05:19:11;16.20;;;14.05;;
40244;SDS011;25963;42.694;23.600;2023-06-22T05:21:37;16.48;;;14.20;;
40244;SDS011;25963;42.694;23.600;2023-06-22T05:24:03;15.50;;;14.00;;
40244;SDS011;25963;42.694;23.600;2023-06-22T05:26:30;19.17;;;13.55;;
40244;SDS011;25963;42.694;23.600;2023-06-22T05:28:56;16.95;;;15.20;;
40244;SDS011;25963;42.694;23.600;2023-06-22T05:31:22;19.60;;;13.90;;
40244;SDS011;25963;42.694;23.600;2023-06-22T05:33:48;22.88;;;15.13;;
40244;SDS011;25963;42.694;23.600;2023-06-22T05:36:16;18.75;;;13.98;;
40244;SDS011;25963;42.694;23.600;2023-06-22T05:38:41;16.52;;;14.88;;
40244;SDS011;25963;42.694;23.600;2023-06-22T05:41:07;16.42;;;14.75;;
40244;SDS011;25963;42.694;23.600;2023-06-22T05:43:33;18.15;;;16.52;;
40244;SDS011;25963;42.694;23.600;2023-06-22T05:46:00;18.17;;;16.38;;
40244;SDS011;25963;42.694;23.600;2023-06-22T05:48:26;22.15;;;15.98;;
40244;SDS011;25963;42.694;23.600;2023-06-22T05:50:52;16.45;;;14.77;;
40244;SDS011;25963;42.694;23.600;2023-06-22T05:53:18;18.20;;;15.40;;
40244;SDS011;25963;42.694;23.600;2023-06-22T05:55:43;19.40;;;15.43;;
40244;SDS011;25963;42.694;23.600;2023-06-22T05:58:09;17.98;;;16.17;;
40244;SDS011;25963;42.694;23.600;2023-06-22T06:00:34;17.27;;;15.63;;
40244;SDS011;25963;42.694;23.600;2023-06-22T06:03:00;17.88;;;16.02;;
40244;SDS011;25963;42.694;23.600;2023-06-22T06:05:31;16.25;;;14.27;;
40244;SDS011;25963;42.694;23.600;2023-06-22T06:08:01;15.60;;;14.10;;
40244;SDS011;25963;42.694;23.600;2023-06-22T06:10:28;16.60;;;15.10;;
40244;SDS011;25963;42.694;23.600;2023-06-22T06:12:54;14.95;;;13.63;;
40244;SDS011;25963;42.694;23.600;2023-06-22T06:15:20;14.85;;;13.55;;
40244;SDS011;25963;42.694;23.600;2023-06-22T06:17:52;14.80;;;13.48;;
40244;SDS011;25963;42.694;23.600;2023-06-22T06:20:19;14.25;;;12.95;;
40244;SDS011;25963;42.694;23.600;2023-06-22T06:22:48;15.27;;;13.55;;
40244;SDS011;25963;42.694;23.600;2023-06-22T06:25:14;15.27;;;13.82;;
40244;SDS011;25963;42.694;23.600;2023-06-22T06:27:45;15.23;;;13.93;;
40244;SDS011;25963;42.694;23.600;2023-06-22T06:30:11;15.25;;;13.88;;
40244;SDS011;25963;42.694;23.600;2023-06-22T06:32:38;15.30;;;13.43;;
40244;SDS011;25963;42.694;23.600;2023-06-22T06:35:08;14.55;;;13.10;;
40244;SDS011;25963;42.694;23.600;2023-06-22T06:37:41;14.38;;;13.05;;
40244;SDS011;25963;42.694;23.600;2023-06-22T06:40:08;14.85;;;13.35;;
40244;SDS011;25963;42.694;23.600;2023-06-22T06:42:36;14.65;;;13.23;;
40244;SDS011;25963;42.694;23.600;2023-06-22T06:45:04;15.43;;;13.80;;
40244;SDS011;25963;42.694;23.600;2023-06-22T06:47:30;32.67;;;16.58;;
40244;SDS011;25963;42.694;23.600;2023-06-22T06:49:55;16.25;;;14.65;;
40244;SDS011;25963;42.694;23.600;2023-06-22T06:52:21;16.15;;;14.65;;
40244;SDS011;25963;42.694;23.600;2023-06-22T06:54:46;16.52;;;14.93;;
40244;SDS011;25963;42.694;23.600;2023-06-22T06:57:11;64.35;;;17.98;;
40244;SDS011;25963;42.694;23.600;2023-06-22T06:59:38;16.15;;;14.55;;
40244;SDS011;25963;42.694;23.600;2023-06-22T07:02:04;14.52;;;13.02;;
40244;SDS011;25963;42.694;23.600;2023-06-22T07:04:30;14.65;;;13.38;;
40244;SDS011;25963;42.694;23.600;2023-06-22T07:06:55;14.38;;;13.07;;
40244;SDS011;25963;42.694;23.600;2023-06-22T07:09:21;14.68;;;13.32;;
40244;SDS011;25963;42.694;23.600;2023-06-22T07:11:46;13.55;;;12.35;;
40244;SDS011;25963;42.694;23.600;2023-06-22T07:14:11;14.40;;;13.02;;
40244;SDS011;25963;42.694;23.600;2023-06-22T07:16:37;15.10;;;13.02;;
40244;SDS011;25963;42.694;23.600;2023-06-22T07:19:02;16.08;;;13.95;;
40244;SDS011;25963;42.694;23.600;2023-06-22T07:21:28;16.00;;;14.25;;
40244;SDS011;25963;42.694;23.600;2023-06-22T07:23:53;15.77;;;14.27;;
40244;SDS011;25963;42.694;23.600;2023-06-22T07:26:19;15.82;;;14.27;;
40244;SDS011;25963;42.694;23.600;2023-06-22T07:28:45;16.15;;;14.65;;
40244;SDS011;25963;42.694;23.600;2023-06-22T07:31:11;16.20;;;14.68;;
40244;SDS011;25963;42.694;23.600;2023-06-22T07:33:36;16.38;;;14.65;;
40244;SDS011;25963;42.694;23.600;2023-06-22T07:36:01;15.07;;;13.63;;
40244;SDS011;25963;42.694;23.600;2023-06-22T07:38:32;16.02;;;13.80;;
40244;SDS011;25963;42.694;23.600;2023-06-22T07:40:58;15.52;;;13.93;;
40244;SDS011;25963;42.694;23.600;2023-06-22T07:43:23;14.18;;;12.98;;
40244;SDS011;25963;42.694;23.600;2023-06-22T07:45:49;14.80;;;13.10;;
40244;SDS011;25963;42.694;23.600;2023-06-22T07:48:21;17.67;;;13.68;;
40244;SDS011;25963;42.694;23.600;2023-06-22T07:50:47;14.85;;;13.27;;
40244;SDS011;25963;42.694;23.600;2023-06-22T07:53:13;14.88;;;13.57;;
40244;SDS011;25963;42.694;23.600;2023-06-22T07:55:38;14.10;;;12.77;;
40244;SDS011;25963;42.694;23.600;2023-06-22T07:58:04;13.77;;;12.35;;
40244;SDS011;25963;42.694;23.600;2023-06-22T08:00:29;15.25;;;11.63;;
40244;SDS011;25963;42.694;23.600;2023-06-22T08:02:54;12.98;;;11.75;;
40244;SDS011;25963;42.694;23.600;2023-06-22T08:05:20;13.75;;;11.65;;
40244;SDS011;25963;42.694;23.600;2023-06-22T08:07:45;14.13;;;12.80;;
40244;SDS011;25963;42.694;23.600;2023-06-22T08:10:11;13.73;;;12.05;;
40244;SDS011;25963;42.694;23.600;2023-06-22T08:12:38;13.13;;;11.85;;
40244;SDS011;25963;42.694;23.600;2023-06-22T08:15:06;13.75;;;11.77;;
40244;SDS011;25963;42.694;23.600;2023-06-22T08:17:32;13.02;;;11.73;;
40244;SDS011;25963;42.694;23.600;2023-06-22T08:19:58;14.02;;;11.13;;
40244;SDS011;25963;42.694;23.600;2023-06-22T08:22:24;12.60;;;11.38;;
40244;SDS011;25963;42.694;23.600;2023-06-22T08:24:50;13.25;;;11.15;;
40244;SDS011;25963;42.694;23.600;2023-06-22T08:27:15;13.05;;;11.27;;
40244;SDS011;25963;42.694;23.600;2023-06-22T08:29:43;16.88;;;11.57;;
40244;SDS011;25963;42.694;23.600;2023-06-22T08:32:10;12.23;;;11.02;;
40244;SDS011;25963;42.694;23.600;2023-06-22T08:34:36;12.60;;;11.43;;
40244;SDS011;25963;42.694;23.600;2023-06-22T08:37:07;14.48;;;10.88;;
40244;SDS011;25963;42.694;23.600;2023-06-22T08:39:36;13.45;;;11.18;;
40244;SDS011;25963;42.694;23.600;2023-06-22T08:42:01;14.32;;;11.13;;
40244;SDS011;25963;42.694;23.600;2023-06-22T08:44:27;12.18;;;11.18;;
40244;SDS011;25963;42.694;23.600;2023-06-22T08:46:52;14.25;;;11.73;;
40244;SDS011;25963;42.694;23.600;2023-06-22T08:49:18;12.05;;;10.73;;
40244;SDS011;25963;42.694;23.600;2023-06-22T08:51:43;11.63;;;10.43;;
40244;SDS011;25963;42.694;23.600;2023-06-22T08:54:10;10.95;;;9.88;;
40244;SDS011;25963;42.694;23.600;2023-06-22T08:56:36;11.10;;;10.10;;
40244;SDS011;25963;42.694;23.600;2023-06-22T08:59:01;12.52;;;9.50;;
40244;SDS011;25963;42.694;23.600;2023-06-22T09:01:27;11.55;;;10.35;;
40244;SDS011;25963;42.694;23.600;2023-06-22T09:03:52;10.48;;;9.43;;
40244;SDS011;25963;42.694;23.600;2023-06-22T09:06:22;11.05;;;9.98;;
40244;SDS011;25963;42.694;23.600;2023-06-22T09:08:48;9.60;;;8.80;;
40244;SDS011;25963;42.694;23.600;2023-06-22T09:11:14;8.20;;;7.45;;
40244;SDS011;25963;42.694;23.600;2023-06-22T09:13:39;9.38;;;8.10;;
40244;SDS011;25963;42.694;23.600;2023-06-22T09:16:05;9.65;;;8.10;;
40244;SDS011;25963;42.694;23.600;2023-06-22T09:18:31;8.25;;;7.32;;
40244;SDS011;25963;42.694;23.600;2023-06-22T09:20:57;9.05;;;8.25;;
40244;SDS011;25963;42.694;23.600;2023-06-22T09:23:22;10.20;;;8.73;;
40244;SDS011;25963;42.694;23.600;2023-06-22T09:31:34;9.27;;;8.40;;
40244;SDS011;25963;42.694;23.600;2023-06-22T09:34:00;9.05;;;7.97;;
40244;SDS011;25963;42.694;23.600;2023-06-22T09:36:25;8.90;;;8.15;;
40244;SDS011;25963;42.694;23.600;2023-06-22T09:38:51;10.93;;;8.60;;
40244;SDS011;25963;42.694;23.600;2023-06-22T09:41:20;12.48;;;8.57;;
40244;SDS011;25963;42.694;23.600;2023-06-22T09:43:50;9.98;;;8.30;;
40244;SDS011;25963;42.694;23.600;2023-06-22T09:46:16;9.63;;;8.18;;
40244;SDS011;25963;42.694;23.600;2023-06-22T09:48:42;9.68;;;8.75;;
40244;SDS011;25963;42.694;23.600;2023-06-22T09:51:07;11.18;;;8.10;;
40244;SDS011;25963;42.694;23.600;2023-06-22T09:53:33;9.27;;;8.48;;
40244;SDS011;25963;42.694;23.600;2023-06-22T09:55:59;9.80;;;8.80;;
40244;SDS011;25963;42.694;23.600;2023-06-22T09:58:25;17.90;;;10.32;;
40244;SDS011;25963;42.694;23.600;2023-06-22T10:00:51;12.32;;;9.00;;
40244;SDS011;25963;42.694;23.600;2023-06-22T10:03:16;10.45;;;9.43;;
40244;SDS011;25963;42.694;23.600;2023-06-22T10:05:41;10.57;;;9.20;;
40244;SDS011;25963;42.694;23.600;2023-06-22T10:08:07;17.98;;;9.52;;
40244;SDS011;25963;42.694;23.600;2023-06-22T10:10:34;10.98;;;8.65;;
40244;SDS011;25963;42.694;23.600;2023-06-22T10:13:02;11.95;;;9.25;;
40244;SDS011;25963;42.694;23.600;2023-06-22T10:15:34;10.02;;;8.95;;
40244;SDS011;25963;42.694;23.600;2023-06-22T10:17:59;9.68;;;8.68;;
40244;SDS011;25963;42.694;23.600;2023-06-22T10:20:24;9.82;;;8.75;;
40244;SDS011;25963;42.694;23.600;2023-06-22T10:22:51;8.82;;;8.02;;
40244;SDS011;25963;42.694;23.600;2023-06-22T10:25:16;9.27;;;8.45;;
40244;SDS011;25963;42.694;23.600;2023-06-22T10:27:42;9.93;;;9.00;;
40244;SDS011;25963;42.694;23.600;2023-06-22T10:30:08;8.93;;;8.20;;
40244;SDS011;25963;42.694;23.600;2023-06-22T10:32:35;9.60;;;8.70;;
40244;SDS011;25963;42.694;23.600;2023-06-22T10:35:01;9.45;;;7.97;;
40244;SDS011;25963;42.694;23.600;2023-06-22T10:37:27;9.02;;;8.13;;
40244;SDS011;25963;42.694;23.600;2023-06-22T10:39:52;10.05;;;8.82;;
40244;SDS011;25963;42.694;23.600;2023-06-22T10:42:18;9.43;;;8.50;;
40244;SDS011;25963;42.694;23.600;2023-06-22T10:44:43;9.45;;;8.65;;
40244;SDS011;25963;42.694;23.600;2023-06-22T10:47:09;8.73;;;7.97;;
40244;SDS011;25963;42.694;23.600;2023-06-22T10:49:37;9.13;;;8.30;;
40244;SDS011;25963;42.694;23.600;2023-06-22T10:52:03;10.57;;;8.73;;
40244;SDS011;25963;42.694;23.600;2023-06-22T10:54:29;10.27;;;8.43;;
40244;SDS011;25963;42.694;23.600;2023-06-22T10:56:54;8.88;;;8.18;;
40244;SDS011;25963;42.694;23.600;2023-06-22T10:59:20;9.90;;;8.43;;
40244;SDS011;25963;42.694;23.600;2023-06-22T11:01:46;12.60;;;9.73;;
40244;SDS011;25963;42.694;23.600;2023-06-22T11:04:12;12.07;;;8.48;;
40244;SDS011;25963;42.694;23.600;2023-06-22T11:06:37;9.80;;;9.00;;
40244;SDS011;25963;42.694;23.600;2023-06-22T11:09:03;10.23;;;9.43;;
40244;SDS011;25963;42.694;23.600;2023-06-22T11:11:29;9.25;;;8.45;;
40244;SDS011;25963;42.694;23.600;2023-06-22T11:13:54;10.63;;;8.75;;
40244;SDS011;25963;42.694;23.600;2023-06-22T11:16:20;9.77;;;8.88;;
40244;SDS011;25963;42.694;23.600;2023-06-22T11:18:45;10.10;;;9.20;;
40244;SDS011;25963;42.694;23.600;2023-06-22T11:21:11;9.75;;;8.95;;
40244;SDS011;25963;42.694;23.600;2023-06-22T11:23:36;11.32;;;8.80;;
40244;SDS011;25963;42.694;23.600;2023-06-22T11:26:02;9.55;;;8.77;;
40244;SDS011;25963;42.694;23.600;2023-06-22T11:28:27;9.50;;;8.73;;
40244;SDS011;25963;42.694;23.600;2023-06-22T11:30:53;9.48;;;8.57;;
40244;SDS011;25963;42.694;23.600;2023-06-22T11:33:18;10.20;;;8.82;;
40244;SDS011;25963;42.694;23.600;2023-06-22T11:35:44;12.00;;;10.43;;
40244;SDS011;25963;42.694;23.600;2023-06-22T11:38:09;10.02;;;9.23;;
40244;SDS011;25963;42.694;23.600;2023-06-22T11:40:34;10.15;;;9.05;;
40244;SDS011;25963;42.694;23.600;2023-06-22T11:43:00;9.07;;;8.27;;
40244;SDS011;25963;42.694;23.600;2023-06-22T11:45:26;10.30;;;9.48;;
40244;SDS011;25963;42.694;23.600;2023-06-22T11:47:52;10.18;;;9.18;;
40244;SDS011;25963;42.694;23.600;2023-06-22T11:50:17;10.75;;;9.82;;
40244;SDS011;25963;42.694;23.600;2023-06-22T11:52:43;10.35;;;8.52;;
40244;SDS011;25963;42.694;23.600;2023-06-22T11:55:08;9.88;;;8.98;;
40244;SDS011;25963;42.694;23.600;2023-06-22T11:57:35;8.85;;;8.00;;
40244;SDS011;25963;42.694;23.600;2023-06-22T12:00:01;11.18;;;9.07;;
40244;SDS011;25963;42.694;23.600;2023-06-22T12:02:31;10.07;;;9.13;;
40244;SDS011;25963;42.694;23.600;2023-06-22T12:04:57;10.45;;;9.50;;
40244;SDS011;25963;42.694;23.600;2023-06-22T12:07:23;11.02;;;9.55;;
40244;SDS011;25963;42.694;23.600;2023-06-22T12:09:49;14.07;;;9.77;;
40244;SDS011;25963;42.694;23.600;2023-06-22T12:12:14;13.93;;;9.93;;
40244;SDS011;25963;42.694;23.600;2023-06-22T12:14:40;14.00;;;10.10;;
40244;SDS011;25963;42.694;23.600;2023-06-22T12:17:05;20.35;;;11.57;;
40244;SDS011;25963;42.694;23.600;2023-06-22T12:19:31;11.05;;;10.02;;
40244;SDS011;25963;42.694;23.600;2023-06-22T12:21:57;11.38;;;10.27;;
40244;SDS011;25963;42.694;23.600;2023-06-22T12:24:22;10.30;;;9.30;;
40244;SDS011;25963;42.694;23.600;2023-06-22T12:26:47;10.82;;;9.82;;
40244;SDS011;25963;42.694;23.600;2023-06-22T12:29:13;10.32;;;9.38;;
40244;SDS011;25963;42.694;23.600;2023-06-22T12:31:39;10.82;;;9.88;;
40244;SDS011;25963;42.694;23.600;2023-06-22T12:34:04;10.88;;;9.85;;
40244;SDS011;25963;42.694;23.600;2023-06-22T12:36:30;11.02;;;10.05;;
40244;SDS011;25963;42.694;23.600;2023-06-22T12:38:55;12.20;;;11.02;;
40244;SDS011;25963;42.694;23.600;2023-06-22T12:41:21;12.02;;;10.30;;
40244;SDS011;25963;42.694;23.600;2023-06-22T12:43:46;9.82;;;9.02;;
40244;SDS011;25963;42.694;23.600;2023-06-22T12:46:12;10.52;;;9.63;;
40244;SDS011;25963;42.694;23.600;2023-06-22T12:48:37;12.68;;;9.75;;
40244;SDS011;25963;42.694;23.600;2023-06-22T12:51:07;9.25;;;8.35;;
40244;SDS011;25963;42.694;23.600;2023-06-22T12:53:33;10.15;;;9.18;;
40244;SDS011;25963;42.694;23.600;2023-06-22T12:55:58;10.95;;;9.20;;
40244;SDS011;25963;42.694;23.600;2023-06-22T12:58:24;8.45;;;7.85;;
40244;SDS011;25963;42.694;23.600;2023-06-22T13:00:49;8.65;;;7.95;;
40244;SDS011;25963;42.694;23.600;2023-06-22T13:03:15;9.48;;;8.52;;
40244;SDS011;25963;42.694;23.600;2023-06-22T13:05:40;10.30;;;9.27;;
40244;SDS011;25963;42.694;23.600;2023-06-22T13:08:06;9.40;;;8.35;;
40244;SDS011;25963;42.694;23.600;2023-06-22T13:10:31;9.30;;;8.50;;
40244;SDS011;25963;42.694;23.600;2023-06-22T13:12:56;8.88;;;8.02;;
40244;SDS011;25963;42.694;23.600;2023-06-22T13:15:26;10.20;;;8.95;;
40244;SDS011;25963;42.694;23.600;2023-06-22T13:17:53;10.50;;;8.38;;
40244;SDS011;25963;42.694;23.600;2023-06-22T13:20:19;8.88;;;7.97;;
40244;SDS011;25963;42.694;23.600;2023-06-22T13:22:44;9.35;;;8.40;;
40244;SDS011;25963;42.694;23.600;2023-06-22T13:25:10;10.07;;;8.65;;
40244;SDS011;25963;42.694;23.600;2023-06-22T13:27:38;9.82;;;9.02;;
40244;SDS011;25963;42.694;23.600;2023-06-22T13:30:07;10.33;;;9.40;;
40244;SDS011;25963;42.694;23.600;2023-06-22T13:32:33;10.52;;;9.23;;
40244;SDS011;25963;42.694;23.600;2023-06-22T13:34:59;10.50;;;9.48;;
40244;SDS011;25963;42.694;23.600;2023-06-22T13:37:25;10.27;;;9.25;;
40244;SDS011;25963;42.694;23.600;2023-06-22T13:39:50;11.93;;;10.75;;
40244;SDS011;25963;42.694;23.600;2023-06-22T13:42:16;13.90;;;10.05;;
40244;SDS011;25963;42.694;23.600;2023-06-22T13:44:41;11.77;;;10.57;;
40244;SDS011;25963;42.694;23.600;2023-06-22T13:47:07;17.08;;;11.68;;
40244;SDS011;25963;42.694;23.600;2023-06-22T13:49:32;15.05;;;11.80;;
40244;SDS011;25963;42.694;23.600;2023-06-22T13:51:58;15.80;;;11.23;;
40244;SDS011;25963;42.694;23.600;2023-06-22T13:54:24;13.23;;;11.85;;
40244;SDS011;25963;42.694;23.600;2023-06-22T13:56:49;14.73;;;11.52;;
40244;SDS011;25963;42.694;23.600;2023-06-22T13:59:15;14.25;;;12.00;;
40244;SDS011;25963;42.694;23.600;2023-06-22T14:01:40;15.27;;;12.63;;
40244;SDS011;25963;42.694;23.600;2023-06-22T14:04:06;15.73;;;11.82;;
40244;SDS011;25963;42.694;23.600;2023-06-22T14:06:32;13.70;;;12.15;;
40244;SDS011;25963;42.694;23.600;2023-06-22T14:08:57;12.48;;;11.18;;
40244;SDS011;25963;42.694;23.600;2023-06-22T14:11:24;12.65;;;11.40;;
40244;SDS011;25963;42.694;23.600;2023-06-22T14:13:49;14.40;;;11.93;;
40244;SDS011;25963;42.694;23.600;2023-06-22T14:16:15;17.10;;;11.65;;
40244;SDS011;25963;42.694;23.600;2023-06-22T14:18:40;12.93;;;11.32;;
40244;SDS011;25963;42.694;23.600;2023-06-22T14:21:06;14.30;;;11.57;;
40244;SDS011;25963;42.694;23.600;2023-06-22T14:23:31;14.50;;;13.00;;
40244;SDS011;25963;42.694;23.600;2023-06-22T14:25:56;15.88;;;12.80;;
40244;SDS011;25963;42.694;23.600;2023-06-22T14:28:22;13.13;;;11.82;;